sensor_id;sensor_type;location;lat;lon;timestamp;pressure;altitude;pressure_sealevel;temperature;humidity
7018;BME280;3549;42.162;24.726;2023-05-08T00:00:48;47569.06;;;-141.97;49.37
7018;BME280;3549;42.162;24.726;2023-05-08T00:03:13;47526.75;;;-141.97;49.47
7018;BME280;3549;42.162;24.726;2023-05-08T00:05:42;47580.59;;;-141.97;49.66
7018;BME280;3549;42.162;24.726;2023-05-08T00:08:07;47605.56;;;-141.97;49.86
7018;BME280;3549;42.162;24.726;2023-05-08T00:10:33;47396.06;;;-141.97;49.62
7018;BME280;3549;42.162;24.726;2023-05-08T00:12:58;47582.50;;;-141.97;48.78
7018;BME280;3549;42.162;24.726;2023-05-08T00:15:23;47738.19;;;-141.97;49.35
7018;BME280;3549;42.162;24.726;2023-05-08T00:17:49;47624.78;;;-141.97;49.09
7018;BME280;3549;42.162;24.726;2023-05-08T00:20:14;47576.75;;;-141.97;49.40
7018;BME280;3549;42.162;24.726;2023-05-08T00:22:39;47586.34;;;-141.97;49.34
7018;BME280;3549;42.162;24.726;2023-05-08T00:25:06;47584.44;;;-141.97;49.12
7018;BME280;3549;42.162;24.726;2023-05-08T00:27:31;47553.69;;;-141.97;49.25
7018;BME280;3549;42.162;24.726;2023-05-08T00:29:57;47578.66;;;-141.97;49.28
7018;BME280;3549;42.162;24.726;2023-05-08T00:32:23;47572.91;;;-141.97;48.70
7018;BME280;3549;42.162;24.726;2023-05-08T00:34:48;47584.44;;;-141.97;48.61
7018;BME280;3549;42.162;24.726;2023-05-08T00:37:14;47576.75;;;-141.97;48.65
7018;BME280;3549;42.162;24.726;2023-05-08T00:39:40;47570.97;;;-141.97;48.77
7018;BME280;3549;42.162;24.726;2023-05-08T00:42:05;47519.06;;;-141.97;48.40
7018;BME280;3549;42.162;24.726;2023-05-08T00:44:31;47540.22;;;-141.97;48.38
7018;BME280;3549;42.162;24.726;2023-05-08T00:46:56;47561.38;;;-141.97;48.26
7018;BME280;3549;42.162;24.726;2023-05-08T00:49:22;47599.81;;;-141.97;48.85
7018;BME280;3549;42.162;24.726;2023-05-08T00:51:50;47574.81;;;-141.97;48.29
7018;BME280;3549;42.162;24.726;2023-05-08T00:54:16;47492.16;;;-141.97;48.44
7018;BME280;3549;42.162;24.726;2023-05-08T00:56:42;47544.06;;;-141.97;48.62
7018;BME280;3549;42.162;24.726;2023-05-08T00:59:11;47572.91;;;-141.97;48.41
7018;BME280;3549;42.162;24.726;2023-05-08T01:01:38;47588.28;;;-141.97;48.52
7018;BME280;3549;42.162;24.726;2023-05-08T01:04:05;47559.44;;;-141.97;48.81
7018;BME280;3549;42.162;24.726;2023-05-08T01:06:31;47546.00;;;-141.97;48.56
7018;BME280;3549;42.162;24.726;2023-05-08T01:08:56;47595.97;;;-141.97;48.57
7018;BME280;3549;42.162;24.726;2023-05-08T01:23:14;47580.59;;;-141.97;48.80
7018;BME280;3549;42.162;24.726;2023-05-08T01:29:34;47561.38;;;-141.97;48.35
7018;BME280;3549;42.162;24.726;2023-05-08T01:34:40;47580.59;;;-141.97;48.55
7018;BME280;3549;42.162;24.726;2023-05-08T01:37:14;47611.34;;;-141.97;48.53
7018;BME280;3549;42.162;24.726;2023-05-08T01:39:45;47559.44;;;-141.97;49.31
7018;BME280;3549;42.162;24.726;2023-05-08T01:42:42;47584.44;;;-141.97;48.76
7018;BME280;3549;42.162;24.726;2023-05-08T01:45:18;47599.81;;;-141.97;49.52
7018;BME280;3549;42.162;24.726;2023-05-08T01:47:50;47692.06;;;-141.97;49.82
7018;BME280;3549;42.162;24.726;2023-05-08T01:50:29;47534.44;;;-141.97;50.09
7018;BME280;3549;42.162;24.726;2023-05-08T01:53:03;47588.28;;;-141.97;50.61
7018;BME280;3549;42.162;24.726;2023-05-08T01:55:32;47603.66;;;-141.97;50.12
7018;BME280;3549;42.162;24.726;2023-05-08T01:58:01;47536.38;;;-141.97;49.90
7018;BME280;3549;42.162;24.726;2023-05-08T02:00:28;47584.44;;;-141.97;50.09
7018;BME280;3549;42.162;24.726;2023-05-08T02:02:54;47557.53;;;-141.97;50.41
7018;BME280;3549;42.162;24.726;2023-05-08T02:05:21;47570.97;;;-141.97;49.99
7018;BME280;3549;42.162;24.726;2023-05-08T02:07:48;47576.75;;;-141.97;50.16
7018;BME280;3549;42.162;24.726;2023-05-08T02:10:14;47695.91;;;-141.97;49.91
7018;BME280;3549;42.162;24.726;2023-05-08T02:12:42;47569.06;;;-141.97;50.25
7018;BME280;3549;42.162;24.726;2023-05-08T02:15:08;47547.91;;;-141.97;50.15
7018;BME280;3549;42.162;24.726;2023-05-08T02:17:38;47572.91;;;-141.97;50.03
7018;BME280;3549;42.162;24.726;2023-05-08T02:20:06;47549.84;;;-141.97;50.31
7018;BME280;3549;42.162;24.726;2023-05-08T02:22:32;47553.69;;;-141.97;50.62
7018;BME280;3549;42.162;24.726;2023-05-08T02:25:00;47634.41;;;-141.97;50.75
7018;BME280;3549;42.162;24.726;2023-05-08T02:27:27;47626.72;;;-141.97;50.97
7018;BME280;3549;42.162;24.726;2023-05-08T02:29:53;47586.34;;;-141.97;50.06
7018;BME280;3549;42.162;24.726;2023-05-08T02:32:20;47565.22;;;-141.97;50.41
7018;BME280;3549;42.162;24.726;2023-05-08T02:34:48;47590.19;;;-141.97;50.49
7018;BME280;3549;42.162;24.726;2023-05-08T02:37:17;47626.72;;;-141.97;50.14
7018;BME280;3549;42.162;24.726;2023-05-08T02:39:44;47515.22;;;-141.97;50.61
7018;BME280;3549;42.162;24.726;2023-05-08T02:42:11;47582.50;;;-141.97;50.72
7018;BME280;3549;42.162;24.726;2023-05-08T02:44:37;47599.81;;;-141.97;50.87
7018;BME280;3549;42.162;24.726;2023-05-08T02:47:19;47592.13;;;-141.97;51.30
7018;BME280;3549;42.162;24.726;2023-05-08T02:49:51;47615.19;;;-141.97;50.93
7018;BME280;3549;42.162;24.726;2023-05-08T02:55:03;47584.44;;;-141.97;50.08
7018;BME280;3549;42.162;24.726;2023-05-08T03:00:19;47611.34;;;-141.97;50.67
7018;BME280;3549;42.162;24.726;2023-05-08T03:02:50;47588.28;;;-141.97;50.16
7018;BME280;3549;42.162;24.726;2023-05-08T03:05:19;47569.06;;;-141.97;49.88
7018;BME280;3549;42.162;24.726;2023-05-08T03:07:52;47592.13;;;-141.97;49.88
7018;BME280;3549;42.162;24.726;2023-05-08T03:10:20;47609.41;;;-141.97;50.24
7018;BME280;3549;42.162;24.726;2023-05-08T03:12:48;47576.75;;;-141.97;49.57
7018;BME280;3549;42.162;24.726;2023-05-08T03:15:27;47605.56;;;-141.97;49.74
7018;BME280;3549;42.162;24.726;2023-05-08T03:17:57;47605.56;;;-141.97;49.91
7018;BME280;3549;42.162;24.726;2023-05-08T03:20:31;47538.28;;;-141.97;52.51
7018;BME280;3549;42.162;24.726;2023-05-08T03:22:58;47576.75;;;-141.97;53.18
7018;BME280;3549;42.162;24.726;2023-05-08T03:25:25;47624.78;;;-141.97;53.52
7018;BME280;3549;42.162;24.726;2023-05-08T03:27:51;47553.69;;;-141.97;53.94
7018;BME280;3549;42.162;24.726;2023-05-08T03:30:18;47574.81;;;-141.97;54.60
7018;BME280;3549;42.162;24.726;2023-05-08T03:32:45;47524.84;;;-141.97;54.65
7018;BME280;3549;42.162;24.726;2023-05-08T03:35:13;47576.75;;;-141.97;55.05
7018;BME280;3549;42.162;24.726;2023-05-08T03:37:40;47540.22;;;-141.97;55.45
7018;BME280;3549;42.162;24.726;2023-05-08T03:40:07;47501.78;;;-141.97;55.41
7018;BME280;3549;42.162;24.726;2023-05-08T03:42:33;47546.00;;;-141.97;55.64
7018;BME280;3549;42.162;24.726;2023-05-08T03:44:59;47590.19;;;-141.97;56.30
7018;BME280;3549;42.162;24.726;2023-05-08T03:47:27;47561.38;;;-141.97;56.57
7018;BME280;3549;42.162;24.726;2023-05-08T03:49:53;47620.94;;;-141.97;56.44
7018;BME280;3549;42.162;24.726;2023-05-08T03:52:19;47592.13;;;-141.97;56.59
7018;BME280;3549;42.162;24.726;2023-05-08T03:54:44;47582.50;;;-141.97;56.81
7018;BME280;3549;42.162;24.726;2023-05-08T03:57:10;47601.72;;;-141.97;57.23
7018;BME280;3549;42.162;24.726;2023-05-08T04:05:16;47626.72;;;-141.97;57.19
7018;BME280;3549;42.162;24.726;2023-05-08T04:08:14;47617.09;;;-141.97;57.43
7018;BME280;3549;42.162;24.726;2023-05-08T04:10:48;47595.97;;;-141.97;58.01
7018;BME280;3549;42.162;24.726;2023-05-08T04:13:19;47567.13;;;-141.97;57.69
7018;BME280;3549;42.162;24.726;2023-05-08T04:16:16;47590.19;;;-141.97;58.38
7018;BME280;3549;42.162;24.726;2023-05-08T04:18:45;47530.59;;;-141.97;59.48
7018;BME280;3549;42.162;24.726;2023-05-08T04:21:17;47546.00;;;-141.97;60.35
7018;BME280;3549;42.162;24.726;2023-05-08T04:23:45;47584.44;;;-141.97;60.33
7018;BME280;3549;42.162;24.726;2023-05-08T04:26:13;47597.88;;;-141.97;59.37
7018;BME280;3549;42.162;24.726;2023-05-08T04:28:40;47690.16;;;-141.97;58.49
7018;BME280;3549;42.162;24.726;2023-05-08T04:31:06;47595.97;;;-141.97;58.33
7018;BME280;3549;42.162;24.726;2023-05-08T04:33:33;47569.06;;;-141.97;57.82
7018;BME280;3549;42.162;24.726;2023-05-08T04:36:02;47630.56;;;-141.97;57.57
7018;BME280;3549;42.162;24.726;2023-05-08T04:38:28;47607.50;;;-141.97;57.41
7018;BME280;3549;42.162;24.726;2023-05-08T04:40:53;47740.13;;;-141.97;55.96
7018;BME280;3549;42.162;24.726;2023-05-08T04:43:19;47540.22;;;-141.97;55.32
7018;BME280;3549;42.162;24.726;2023-05-08T04:45:45;47557.53;;;-141.97;54.91
7018;BME280;3549;42.162;24.726;2023-05-08T04:48:10;47607.50;;;-141.97;55.47
7018;BME280;3549;42.162;24.726;2023-05-08T04:50:35;47567.13;;;-141.97;56.06
7018;BME280;3549;42.162;24.726;2023-05-08T04:53:01;47722.81;;;-141.97;55.29
7018;BME280;3549;42.162;24.726;2023-05-08T04:55:26;47601.72;;;-141.97;55.38
7018;BME280;3549;42.162;24.726;2023-05-08T04:57:52;47588.28;;;-141.97;55.04
7018;BME280;3549;42.162;24.726;2023-05-08T05:00:18;47515.22;;;-141.97;53.53
7018;BME280;3549;42.162;24.726;2023-05-08T05:02:43;47597.88;;;-141.97;52.57
7018;BME280;3549;42.162;24.726;2023-05-08T05:05:09;47572.91;;;-141.97;52.49
7018;BME280;3549;42.162;24.726;2023-05-08T05:07:35;47599.81;;;-141.97;52.95
7018;BME280;3549;42.162;24.726;2023-05-08T05:10:00;47620.94;;;-141.97;52.88
7018;BME280;3549;42.162;24.726;2023-05-08T05:12:26;47736.28;;;-141.97;52.26
7018;BME280;3549;42.162;24.726;2023-05-08T05:14:51;47561.38;;;-141.97;50.84
7018;BME280;3549;42.162;24.726;2023-05-08T05:17:17;47570.97;;;-141.97;50.55
7018;BME280;3549;42.162;24.726;2023-05-08T05:19:42;47594.03;;;-141.97;49.37
7018;BME280;3549;42.162;24.726;2023-05-08T05:22:07;47599.81;;;-141.97;48.88
7018;BME280;3549;42.162;24.726;2023-05-08T05:24:33;47569.06;;;-141.97;48.12
7018;BME280;3549;42.162;24.726;2023-05-08T05:27:01;47555.59;;;-141.97;47.73
7018;BME280;3549;42.162;24.726;2023-05-08T05:29:27;47499.84;;;-141.97;47.13
7018;BME280;3549;42.162;24.726;2023-05-08T05:31:52;47538.28;;;-141.97;47.18
7018;BME280;3549;42.162;24.726;2023-05-08T05:34:18;47561.38;;;-141.97;47.28
7018;BME280;3549;42.162;24.726;2023-05-08T05:36:43;47509.47;;;-141.97;46.86
7018;BME280;3549;42.162;24.726;2023-05-08T05:39:09;47634.41;;;-141.97;46.23
7018;BME280;3549;42.162;24.726;2023-05-08T05:41:34;47486.41;;;-141.97;45.60
7018;BME280;3549;42.162;24.726;2023-05-08T05:44:00;47515.22;;;-141.97;45.00
7018;BME280;3549;42.162;24.726;2023-05-08T05:46:26;47544.06;;;-141.97;44.20
7018;BME280;3549;42.162;24.726;2023-05-08T05:48:56;47590.19;;;-141.97;44.14
7018;BME280;3549;42.162;24.726;2023-05-08T05:51:22;47642.09;;;-141.97;42.84
7018;BME280;3549;42.162;24.726;2023-05-08T05:53:48;47576.75;;;-141.97;43.19
7018;BME280;3549;42.162;24.726;2023-05-08T05:56:13;47515.22;;;-141.97;42.34
7018;BME280;3549;42.162;24.726;2023-05-08T05:58:38;47536.38;;;-141.97;40.40
7018;BME280;3549;42.162;24.726;2023-05-08T06:01:08;47576.75;;;-141.97;39.97
7018;BME280;3549;42.162;24.726;2023-05-08T06:03:34;47563.28;;;-141.97;39.74
7018;BME280;3549;42.162;24.726;2023-05-08T06:05:59;47534.44;;;-141.97;40.00
7018;BME280;3549;42.162;24.726;2023-05-08T06:08:25;47586.34;;;-141.97;39.91
7018;BME280;3549;42.162;24.726;2023-05-08T06:10:50;47522.91;;;-141.97;39.52
7018;BME280;3549;42.162;24.726;2023-05-08T06:13:15;47553.69;;;-141.97;39.87
7018;BME280;3549;42.162;24.726;2023-05-08T06:15:41;47582.50;;;-141.97;39.48
7018;BME280;3549;42.162;24.726;2023-05-08T06:18:06;47655.53;;;-141.97;40.14
7018;BME280;3549;42.162;24.726;2023-05-08T06:20:32;47594.03;;;-141.97;39.28
7018;BME280;3549;42.162;24.726;2023-05-08T06:22:57;47565.22;;;-141.97;39.74
7018;BME280;3549;42.162;24.726;2023-05-08T06:25:23;47682.47;;;-141.97;39.72
7018;BME280;3549;42.162;24.726;2023-05-08T06:27:48;47544.06;;;-141.97;39.32
7018;BME280;3549;42.162;24.726;2023-05-08T06:30:14;47559.44;;;-141.97;38.87
7018;BME280;3549;42.162;24.726;2023-05-08T06:32:39;47526.75;;;-141.97;39.12
7018;BME280;3549;42.162;24.726;2023-05-08T06:35:05;47592.13;;;-141.97;39.23
7018;BME280;3549;42.162;24.726;2023-05-08T06:37:30;47534.44;;;-141.97;38.75
7018;BME280;3549;42.162;24.726;2023-05-08T06:39:59;47565.22;;;-141.97;38.42
7018;BME280;3549;42.162;24.726;2023-05-08T06:42:34;47634.41;;;-141.97;37.79
7018;BME280;3549;42.162;24.726;2023-05-08T06:45:01;47496.00;;;-141.97;37.41
7018;BME280;3549;42.162;24.726;2023-05-08T06:47:26;47574.81;;;-141.97;37.44
7018;BME280;3549;42.162;24.726;2023-05-08T06:49:51;47574.81;;;-141.97;37.42
7018;BME280;3549;42.162;24.726;2023-05-08T06:52:18;47565.22;;;-141.97;37.94
7018;BME280;3549;42.162;24.726;2023-05-08T06:54:44;47465.25;;;-141.97;38.49
7018;BME280;3549;42.162;24.726;2023-05-08T06:57:10;47544.06;;;-141.97;38.14
7018;BME280;3549;42.162;24.726;2023-05-08T06:59:37;47540.22;;;-141.97;38.21
7018;BME280;3549;42.162;24.726;2023-05-08T07:02:03;47496.00;;;-141.97;38.20
7018;BME280;3549;42.162;24.726;2023-05-08T07:04:28;47480.63;;;-141.97;38.23
7018;BME280;3549;42.162;24.726;2023-05-08T07:06:54;47699.75;;;-141.97;37.31
7018;BME280;3549;42.162;24.726;2023-05-08T07:09:19;47561.38;;;-141.97;36.88
7018;BME280;3549;42.162;24.726;2023-05-08T07:11:45;47536.38;;;-141.97;37.57
7018;BME280;3549;42.162;24.726;2023-05-08T07:14:10;47743.97;;;-141.97;37.86
7018;BME280;3549;42.162;24.726;2023-05-08T07:16:35;47484.47;;;-141.97;37.54
7018;BME280;3549;42.162;24.726;2023-05-08T07:19:02;47474.88;;;-141.97;37.21
7018;BME280;3549;42.162;24.726;2023-05-08T07:21:27;47521.00;;;-141.97;36.93
7018;BME280;3549;42.162;24.726;2023-05-08T07:23:53;47511.38;;;-141.97;36.38
7018;BME280;3549;42.162;24.726;2023-05-08T07:26:19;47482.56;;;-141.97;35.96
7018;BME280;3549;42.162;24.726;2023-05-08T07:28:45;47465.25;;;-141.97;36.17
7018;BME280;3549;42.162;24.726;2023-05-08T07:31:11;47453.72;;;-141.97;36.18
7018;BME280;3549;42.162;24.726;2023-05-08T07:33:36;47522.91;;;-141.97;35.71
7018;BME280;3549;42.162;24.726;2023-05-08T07:36:02;47474.88;;;-141.97;35.17
7018;BME280;3549;42.162;24.726;2023-05-08T07:38:27;47567.13;;;-141.97;35.17
7018;BME280;3549;42.162;24.726;2023-05-08T07:40:53;47538.28;;;-141.97;35.34
7018;BME280;3549;42.162;24.726;2023-05-08T07:43:22;47544.06;;;-141.97;35.60
7018;BME280;3549;42.162;24.726;2023-05-08T07:45:48;47330.72;;;-141.97;35.85
7018;BME280;3549;42.162;24.726;2023-05-08T07:48:13;47513.31;;;-141.97;36.33
7018;BME280;3549;42.162;24.726;2023-05-08T07:50:39;47490.25;;;-141.97;35.79
7018;BME280;3549;42.162;24.726;2023-05-08T07:53:05;47530.59;;;-141.97;35.37
7018;BME280;3549;42.162;24.726;2023-05-08T07:55:30;47507.53;;;-141.97;35.35
7018;BME280;3549;42.162;24.726;2023-05-08T07:57:56;47546.00;;;-141.97;34.88
7018;BME280;3549;42.162;24.726;2023-05-08T08:00:21;47499.84;;;-141.97;35.48
7018;BME280;3549;42.162;24.726;2023-05-08T08:02:47;47440.28;;;-141.97;35.85
7018;BME280;3549;42.162;24.726;2023-05-08T08:05:12;47538.28;;;-141.97;36.35
7018;BME280;3549;42.162;24.726;2023-05-08T08:07:38;47542.16;;;-141.97;36.28
7018;BME280;3549;42.162;24.726;2023-05-08T08:10:03;47507.53;;;-141.97;36.13
7018;BME280;3549;42.162;24.726;2023-05-08T08:12:29;47715.13;;;-141.97;36.51
7018;BME280;3549;42.162;24.726;2023-05-08T08:14:56;47542.16;;;-141.97;35.89
7018;BME280;3549;42.162;24.726;2023-05-08T08:17:21;47496.00;;;-141.97;35.43
7018;BME280;3549;42.162;24.726;2023-05-08T08:19:47;47499.84;;;-141.97;35.41
7018;BME280;3549;42.162;24.726;2023-05-08T08:22:13;47707.44;;;-141.97;35.46
7018;BME280;3549;42.162;24.726;2023-05-08T08:24:39;47499.84;;;-141.97;35.64
7018;BME280;3549;42.162;24.726;2023-05-08T08:27:04;47461.41;;;-141.97;36.67
7018;BME280;3549;42.162;24.726;2023-05-08T08:29:29;47519.06;;;-141.97;35.25
7018;BME280;3549;42.162;24.726;2023-05-08T08:31:55;47497.94;;;-141.97;35.14
7018;BME280;3549;42.162;24.726;2023-05-08T08:34:21;47476.78;;;-141.97;34.43
7018;BME280;3549;42.162;24.726;2023-05-08T08:36:46;47507.53;;;-141.97;34.29
7018;BME280;3549;42.162;24.726;2023-05-08T08:39:12;47499.84;;;-141.97;33.97
7018;BME280;3549;42.162;24.726;2023-05-08T08:41:38;47480.63;;;-141.97;33.75
7018;BME280;3549;42.162;24.726;2023-05-08T08:44:04;47503.69;;;-141.97;33.40
7018;BME280;3549;42.162;24.726;2023-05-08T08:46:30;47509.47;;;-141.97;33.41
7018;BME280;3549;42.162;24.726;2023-05-08T08:48:58;47432.59;;;-141.97;34.31
7018;BME280;3549;42.162;24.726;2023-05-08T08:51:35;47503.69;;;-141.97;34.56
7018;BME280;3549;42.162;24.726;2023-05-08T08:54:09;47521.00;;;-141.97;34.56
7018;BME280;3549;42.162;24.726;2023-05-08T08:56:36;47461.41;;;-141.97;34.14
7018;BME280;3549;42.162;24.726;2023-05-08T08:59:04;47509.47;;;-141.97;34.54
7018;BME280;3549;42.162;24.726;2023-05-08T09:01:33;47534.44;;;-141.97;34.56
7018;BME280;3549;42.162;24.726;2023-05-08T09:04:00;47492.16;;;-141.97;34.43
7018;BME280;3549;42.162;24.726;2023-05-08T09:06:25;47476.78;;;-141.97;33.84
7018;BME280;3549;42.162;24.726;2023-05-08T09:08:54;47459.50;;;-141.97;33.64
7018;BME280;3549;42.162;24.726;2023-05-08T09:11:20;47459.50;;;-141.97;33.42
7018;BME280;3549;42.162;24.726;2023-05-08T09:13:46;47511.38;;;-141.97;33.61
7018;BME280;3549;42.162;24.726;2023-05-08T09:16:11;47469.09;;;-141.97;33.36
7018;BME280;3549;42.162;24.726;2023-05-08T09:18:36;47496.00;;;-141.97;33.26
7018;BME280;3549;42.162;24.726;2023-05-08T09:21:05;47659.38;;;-141.97;33.63
7018;BME280;3549;42.162;24.726;2023-05-08T09:23:30;47486.41;;;-141.97;33.23
7018;BME280;3549;42.162;24.726;2023-05-08T09:25:56;47497.94;;;-141.97;33.02
7018;BME280;3549;42.162;24.726;2023-05-08T09:28:23;47472.94;;;-141.97;32.41
7018;BME280;3549;42.162;24.726;2023-05-08T09:33:16;47446.03;;;-141.97;33.20
7018;BME280;3549;42.162;24.726;2023-05-08T09:35:41;47449.88;;;-141.97;32.84
7018;BME280;3549;42.162;24.726;2023-05-08T09:38:07;47453.72;;;-141.97;33.06
7018;BME280;3549;42.162;24.726;2023-05-08T09:40:32;47449.88;;;-141.97;32.37
7018;BME280;3549;42.162;24.726;2023-05-08T09:43:10;47436.44;;;-141.97;32.22
7018;BME280;3549;42.162;24.726;2023-05-08T09:45:37;47497.94;;;-141.97;32.36
7018;BME280;3549;42.162;24.726;2023-05-08T09:48:04;47492.16;;;-141.97;32.47
7018;BME280;3549;42.162;24.726;2023-05-08T09:50:30;47455.66;;;-141.97;33.34
7018;BME280;3549;42.162;24.726;2023-05-08T09:52:57;47465.25;;;-141.97;33.50
7018;BME280;3549;42.162;24.726;2023-05-08T09:55:22;47471.03;;;-141.97;33.72
7018;BME280;3549;42.162;24.726;2023-05-08T09:57:57;47465.25;;;-141.97;33.72
7018;BME280;3549;42.162;24.726;2023-05-08T10:00:24;47465.25;;;-141.97;33.00
7018;BME280;3549;42.162;24.726;2023-05-08T10:03:08;47471.03;;;-141.97;32.93
7018;BME280;3549;42.162;24.726;2023-05-08T10:05:33;47486.41;;;-141.97;32.86
7018;BME280;3549;42.162;24.726;2023-05-08T10:08:21;47488.31;;;-141.97;32.56
7018;BME280;3549;42.162;24.726;2023-05-08T10:10:47;47451.81;;;-141.97;33.07
7018;BME280;3549;42.162;24.726;2023-05-08T10:13:12;47426.81;;;-141.97;33.55
7018;BME280;3549;42.162;24.726;2023-05-08T10:15:41;47480.63;;;-141.97;33.68
7018;BME280;3549;42.162;24.726;2023-05-08T10:18:07;47484.47;;;-141.97;33.23
7018;BME280;3549;42.162;24.726;2023-05-08T10:20:40;47449.88;;;-141.97;32.70
7018;BME280;3549;42.162;24.726;2023-05-08T10:23:07;47446.03;;;-141.97;33.12
7018;BME280;3549;42.162;24.726;2023-05-08T10:25:41;47472.94;;;-141.97;32.79
7018;BME280;3549;42.162;24.726;2023-05-08T10:28:35;47392.22;;;-141.97;33.00
7018;BME280;3549;42.162;24.726;2023-05-08T10:31:02;47461.41;;;-141.97;32.92
7018;BME280;3549;42.162;24.726;2023-05-08T10:33:30;47444.13;;;-141.97;32.63
7018;BME280;3549;42.162;24.726;2023-05-08T10:35:56;47421.06;;;-141.97;32.57
7018;BME280;3549;42.162;24.726;2023-05-08T10:38:22;47434.50;;;-141.97;32.61
7018;BME280;3549;42.162;24.726;2023-05-08T10:40:49;47446.03;;;-141.97;32.94
7018;BME280;3549;42.162;24.726;2023-05-08T10:43:18;47465.25;;;-141.97;32.96
7018;BME280;3549;42.162;24.726;2023-05-08T10:45:43;47472.94;;;-141.97;33.05
7018;BME280;3549;42.162;24.726;2023-05-08T10:48:19;47442.19;;;-141.97;33.03
7018;BME280;3549;42.162;24.726;2023-05-08T10:51:06;47457.56;;;-141.97;33.02
7018;BME280;3549;42.162;24.726;2023-05-08T10:53:50;47438.34;;;-141.97;32.95
7018;BME280;3549;42.162;24.726;2023-05-08T10:56:16;47455.66;;;-141.97;32.83
7018;BME280;3549;42.162;24.726;2023-05-08T10:58:42;47453.72;;;-141.97;33.71
7018;BME280;3549;42.162;24.726;2023-05-08T11:03:44;47480.63;;;-141.97;33.45
7018;BME280;3549;42.162;24.726;2023-05-08T11:06:09;47580.59;;;-141.97;33.29
7018;BME280;3549;42.162;24.726;2023-05-08T11:08:46;47555.59;;;-141.97;33.75
7018;BME280;3549;42.162;24.726;2023-05-08T11:11:17;47446.03;;;-141.97;33.46
7018;BME280;3549;42.162;24.726;2023-05-08T11:13:58;47472.94;;;-141.97;32.97
7018;BME280;3549;42.162;24.726;2023-05-08T11:17:01;47444.13;;;-141.97;33.44
7018;BME280;3549;42.162;24.726;2023-05-08T11:19:27;47409.53;;;-141.97;32.80
7018;BME280;3549;42.162;24.726;2023-05-08T11:24:38;47438.34;;;-141.97;33.30
7018;BME280;3549;42.162;24.726;2023-05-08T11:27:04;47428.75;;;-141.97;31.99
7018;BME280;3549;42.162;24.726;2023-05-08T11:29:29;47411.44;;;-141.97;31.55
7018;BME280;3549;42.162;24.726;2023-05-08T11:31:55;47419.13;;;-141.97;31.73
7018;BME280;3549;42.162;24.726;2023-05-08T11:37:08;47384.53;;;-141.97;30.44
7018;BME280;3549;42.162;24.726;2023-05-08T11:39:34;47411.44;;;-141.97;30.08
7018;BME280;3549;42.162;24.726;2023-05-08T11:45:03;47405.69;;;-141.97;31.28
7018;BME280;3549;42.162;24.726;2023-05-08T11:47:49;47411.44;;;-141.97;30.37
7018;BME280;3549;42.162;24.726;2023-05-08T11:50:24;47392.22;;;-141.97;29.12
7018;BME280;3549;42.162;24.726;2023-05-08T11:52:50;47355.72;;;-141.97;29.21
7018;BME280;3549;42.162;24.726;2023-05-08T11:55:15;47351.88;;;-141.97;28.38
7018;BME280;3549;42.162;24.726;2023-05-08T11:57:43;47359.56;;;-141.97;27.60
7018;BME280;3549;42.162;24.726;2023-05-08T12:00:10;47330.72;;;-141.97;27.67
7018;BME280;3549;42.162;24.726;2023-05-08T12:02:40;47394.16;;;-141.97;27.73
7018;BME280;3549;42.162;24.726;2023-05-08T12:05:07;47361.47;;;-141.97;28.66
7018;BME280;3549;42.162;24.726;2023-05-08T12:07:44;47369.16;;;-141.97;29.45
7018;BME280;3549;42.162;24.726;2023-05-08T12:10:11;47374.94;;;-141.97;29.39
7018;BME280;3549;42.162;24.726;2023-05-08T12:12:38;47326.88;;;-141.97;29.33
7018;BME280;3549;42.162;24.726;2023-05-08T12:15:13;47401.84;;;-141.97;29.88
7018;BME280;3549;42.162;24.726;2023-05-08T12:17:40;47384.53;;;-141.97;30.57
7018;BME280;3549;42.162;24.726;2023-05-08T12:22:39;47440.28;;;-141.97;32.77
7018;BME280;3549;42.162;24.726;2023-05-08T12:25:06;47424.91;;;-141.97;33.55
7018;BME280;3549;42.162;24.726;2023-05-08T12:27:35;47453.72;;;-141.97;33.55
7018;BME280;3549;42.162;24.726;2023-05-08T12:30:05;47451.81;;;-141.97;33.41
7018;BME280;3549;42.162;24.726;2023-05-08T12:32:31;47434.50;;;-141.97;33.39
7018;BME280;3549;42.162;24.726;2023-05-08T12:34:59;47474.88;;;-141.97;32.85
7018;BME280;3549;42.162;24.726;2023-05-08T12:37:27;47457.56;;;-141.97;32.94
7018;BME280;3549;42.162;24.726;2023-05-08T12:39:53;47442.19;;;-141.97;32.81
7018;BME280;3549;42.162;24.726;2023-05-08T12:42:18;47447.97;;;-141.97;32.59
7018;BME280;3549;42.162;24.726;2023-05-08T12:44:51;47532.53;;;-141.97;32.36
7018;BME280;3549;42.162;24.726;2023-05-08T12:47:17;47390.31;;;-141.97;31.78
7018;BME280;3549;42.162;24.726;2023-05-08T12:49:43;47394.16;;;-141.97;31.15
7018;BME280;3549;42.162;24.726;2023-05-08T12:52:12;47390.31;;;-141.97;30.59
7018;BME280;3549;42.162;24.726;2023-05-08T12:54:46;47399.91;;;-141.97;30.54
7018;BME280;3549;42.162;24.726;2023-05-08T12:57:13;47447.97;;;-141.97;30.83
7018;BME280;3549;42.162;24.726;2023-05-08T12:59:40;47401.84;;;-141.97;31.41
7018;BME280;3549;42.162;24.726;2023-05-08T13:02:13;47403.75;;;-141.97;30.83
7018;BME280;3549;42.162;24.726;2023-05-08T13:04:38;47323.03;;;-141.97;29.69
7018;BME280;3549;42.162;24.726;2023-05-08T13:07:04;47376.84;;;-141.97;29.16
7018;BME280;3549;42.162;24.726;2023-05-08T13:09:29;47353.78;;;-141.97;29.03
7018;BME280;3549;42.162;24.726;2023-05-08T13:11:55;47376.84;;;-141.97;28.84
7018;BME280;3549;42.162;24.726;2023-05-08T13:14:20;47313.44;;;-141.97;28.03
7018;BME280;3549;42.162;24.726;2023-05-08T13:16:46;47311.50;;;-141.97;27.51
7018;BME280;3549;42.162;24.726;2023-05-08T13:19:16;47265.38;;;-141.97;26.59
7018;BME280;3549;42.162;24.726;2023-05-08T13:21:42;47298.06;;;-141.97;27.44
7018;BME280;3549;42.162;24.726;2023-05-08T13:24:15;47319.19;;;-141.97;28.69
7018;BME280;3549;42.162;24.726;2023-05-08T13:26:40;47346.09;;;-141.97;29.36
7018;BME280;3549;42.162;24.726;2023-05-08T13:29:06;47411.44;;;-141.97;30.76
7018;BME280;3549;42.162;24.726;2023-05-08T13:31:31;47407.59;;;-141.97;31.24
7018;BME280;3549;42.162;24.726;2023-05-08T13:33:57;47407.59;;;-141.97;31.84
7018;BME280;3549;42.162;24.726;2023-05-08T13:36:22;47451.81;;;-141.97;31.99
7018;BME280;3549;42.162;24.726;2023-05-08T13:38:49;47436.44;;;-141.97;32.40